sensor_id;sensor_type;location;lat;lon;timestamp;temperature;humidity
58566;DHT22;47788;46.172;-1.158;2022-09-24T00:00:36;15.40;99.90
58566;DHT22;47788;46.172;-1.158;2022-09-24T00:03:02;15.40;99.90
58566;DHT22;47788;46.172;-1.158;2022-09-24T00:05:28;15.40;99.90
58566;DHT22;47788;46.172;-1.158;2022-09-24T00:07:53;15.40;99.90
58566;DHT22;47788;46.172;-1.158;2022-09-24T00:10:19;15.50;99.90
58566;DHT22;47788;46.172;-1.158;2022-09-24T00:12:46;15.50;99.90
58566;DHT22;47788;46.172;-1.158;2022-09-24T00:15:12;15.50;99.90
58566;DHT22;47788;46.172;-1.158;2022-09-24T00:17:37;15.60;99.90
58566;DHT22;47788;46.172;-1.158;2022-09-24T00:20:03;15.60;99.90
58566;DHT22;47788;46.172;-1.158;2022-09-24T00:22:31;15.60;99.90
58566;DHT22;47788;46.172;-1.158;2022-09-24T00:24:57;15.60;99.90
58566;DHT22;47788;46.172;-1.158;2022-09-24T00:27:41;15.70;99.90
58566;DHT22;47788;46.172;-1.158;2022-09-24T00:30:07;15.70;99.90
58566;DHT22;47788;46.172;-1.158;2022-09-24T00:32:32;15.80;99.90
58566;DHT22;47788;46.172;-1.158;2022-09-24T00:34:58;15.90;99.90
58566;DHT22;47788;46.172;-1.158;2022-09-24T00:37:24;15.90;99.90
58566;DHT22;47788;46.172;-1.158;2022-09-24T00:39:50;15.90;99.90
58566;DHT22;47788;46.172;-1.158;2022-09-24T00:42:18;16.00;99.90
58566;DHT22;47788;46.172;-1.158;2022-09-24T00:47:34;16.00;99.90
58566;DHT22;47788;46.172;-1.158;2022-09-24T00:50:14;16.00;99.90
58566;DHT22;47788;46.172;-1.158;2022-09-24T00:52:49;16.00;99.90
58566;DHT22;47788;46.172;-1.158;2022-09-24T00:55:16;16.00;99.90
58566;DHT22;47788;46.172;-1.158;2022-09-24T00:57:48;16.10;99.90
58566;DHT22;47788;46.172;-1.158;2022-09-24T01:00:15;16.10;99.90
58566;DHT22;47788;46.172;-1.158;2022-09-24T01:02:43;16.00;99.90
58566;DHT22;47788;46.172;-1.158;2022-09-24T01:05:10;16.00;99.90
58566;DHT22;47788;46.172;-1.158;2022-09-24T01:07:36;16.00;99.90
58566;DHT22;47788;46.172;-1.158;2022-09-24T01:10:02;16.00;99.90
58566;DHT22;47788;46.172;-1.158;2022-09-24T01:12:51;16.00;99.90
58566;DHT22;47788;46.172;-1.158;2022-09-24T01:15:30;16.00;99.90
58566;DHT22;47788;46.172;-1.158;2022-09-24T01:18:04;16.00;99.90
58566;DHT22;47788;46.172;-1.158;2022-09-24T01:20:45;16.00;99.90
58566;DHT22;47788;46.172;-1.158;2022-09-24T01:32:00;15.80;99.90
58566;DHT22;47788;46.172;-1.158;2022-09-24T01:34:39;15.70;99.90
58566;DHT22;47788;46.172;-1.158;2022-09-24T01:37:07;15.70;99.90
58566;DHT22;47788;46.172;-1.158;2022-09-24T01:39:35;15.70;99.90
58566;DHT22;47788;46.172;-1.158;2022-09-24T01:42:02;15.60;99.90
58566;DHT22;47788;46.172;-1.158;2022-09-24T01:44:29;15.60;99.90
58566;DHT22;47788;46.172;-1.158;2022-09-24T01:46:55;15.60;99.90
58566;DHT22;47788;46.172;-1.158;2022-09-24T01:49:21;15.50;99.90
58566;DHT22;47788;46.172;-1.158;2022-09-24T01:51:50;15.50;99.90
58566;DHT22;47788;46.172;-1.158;2022-09-24T01:54:24;15.40;99.90
58566;DHT22;47788;46.172;-1.158;2022-09-24T01:57:02;15.40;99.90
58566;DHT22;47788;46.172;-1.158;2022-09-24T01:59:35;15.40;99.90
58566;DHT22;47788;46.172;-1.158;2022-09-24T02:02:48;15.40;99.90
58566;DHT22;47788;46.172;-1.158;2022-09-24T02:05:41;15.30;99.90
58566;DHT22;47788;46.172;-1.158;2022-09-24T02:08:20;15.30;99.90
58566;DHT22;47788;46.172;-1.158;2022-09-24T02:13:19;15.30;99.90
58566;DHT22;47788;46.172;-1.158;2022-09-24T02:15:50;15.20;99.90
58566;DHT22;47788;46.172;-1.158;2022-09-24T02:18:21;15.20;99.90
58566;DHT22;47788;46.172;-1.158;2022-09-24T02:20:49;15.20;99.90
58566;DHT22;47788;46.172;-1.158;2022-09-24T02:23:16;15.20;99.90
58566;DHT22;47788;46.172;-1.158;2022-09-24T02:25:50;15.20;99.90
58566;DHT22;47788;46.172;-1.158;2022-09-24T02:28:17;15.20;99.90
58566;DHT22;47788;46.172;-1.158;2022-09-24T02:30:47;15.30;99.90
58566;DHT22;47788;46.172;-1.158;2022-09-24T02:33:14;15.30;99.90
58566;DHT22;47788;46.172;-1.158;2022-09-24T02:35:59;15.30;99.90
58566;DHT22;47788;46.172;-1.158;2022-09-24T02:38:25;15.30;99.90
58566;DHT22;47788;46.172;-1.158;2022-09-24T02:40:51;15.40;99.90
58566;DHT22;47788;46.172;-1.158;2022-09-24T02:43:17;15.40;99.90
58566;DHT22;47788;46.172;-1.158;2022-09-24T02:45:43;15.50;99.90
58566;DHT22;47788;46.172;-1.158;2022-09-24T02:48:08;15.50;99.90
58566;DHT22;47788;46.172;-1.158;2022-09-24T02:50:34;15.60;99.90
58566;DHT22;47788;46.172;-1.158;2022-09-24T02:53:00;15.60;99.90
58566;DHT22;47788;46.172;-1.158;2022-09-24T02:55:26;15.60;99.90
58566;DHT22;47788;46.172;-1.158;2022-09-24T02:57:51;15.70;99.90
58566;DHT22;47788;46.172;-1.158;2022-09-24T03:00:17;15.70;99.90
58566;DHT22;47788;46.172;-1.158;2022-09-24T03:02:45;15.70;99.90
58566;DHT22;47788;46.172;-1.158;2022-09-24T03:05:12;15.70;99.90
58566;DHT22;47788;46.172;-1.158;2022-09-24T03:07:42;15.70;99.90
58566;DHT22;47788;46.172;-1.158;2022-09-24T03:10:09;15.70;99.90
58566;DHT22;47788;46.172;-1.158;2022-09-24T03:12:34;15.70;99.90
58566;DHT22;47788;46.172;-1.158;2022-09-24T03:15:00;15.70;99.90
58566;DHT22;47788;46.172;-1.158;2022-09-24T03:17:25;15.70;99.90
58566;DHT22;47788;46.172;-1.158;2022-09-24T03:19:52;15.70;99.90
58566;DHT22;47788;46.172;-1.158;2022-09-24T03:22:18;15.70;99.90
58566;DHT22;47788;46.172;-1.158;2022-09-24T03:24:44;15.80;99.90
58566;DHT22;47788;46.172;-1.158;2022-09-24T03:27:10;15.80;99.90
58566;DHT22;47788;46.172;-1.158;2022-09-24T03:29:35;15.80;99.90
58566;DHT22;47788;46.172;-1.158;2022-09-24T03:32:19;15.80;99.90
58566;DHT22;47788;46.172;-1.158;2022-09-24T03:34:46;15.80;99.90
58566;DHT22;47788;46.172;-1.158;2022-09-24T03:37:11;15.80;99.90
58566;DHT22;47788;46.172;-1.158;2022-09-24T03:39:37;15.80;99.90
58566;DHT22;47788;46.172;-1.158;2022-09-24T03:42:03;15.90;99.90
58566;DHT22;47788;46.172;-1.158;2022-09-24T03:44:29;15.90;99.90
58566;DHT22;47788;46.172;-1.158;2022-09-24T03:46:54;15.90;99.90
58566;DHT22;47788;46.172;-1.158;2022-09-24T03:49:21;15.90;99.90
58566;DHT22;47788;46.172;-1.158;2022-09-24T03:51:48;15.90;99.90
58566;DHT22;47788;46.172;-1.158;2022-09-24T03:54:14;15.90;99.90
58566;DHT22;47788;46.172;-1.158;2022-09-24T03:56:41;15.90;99.90
58566;DHT22;47788;46.172;-1.158;2022-09-24T03:59:09;15.90;99.90
58566;DHT22;47788;46.172;-1.158;2022-09-24T04:01:35;15.90;99.90
58566;DHT22;47788;46.172;-1.158;2022-09-24T04:04:02;15.90;99.90
58566;DHT22;47788;46.172;-1.158;2022-09-24T04:06:28;15.80;99.90
58566;DHT22;47788;46.172;-1.158;2022-09-24T04:08:54;15.80;99.90
58566;DHT22;47788;46.172;-1.158;2022-09-24T04:11:20;15.80;99.90
58566;DHT22;47788;46.172;-1.158;2022-09-24T04:13:46;15.70;99.90
58566;DHT22;47788;46.172;-1.158;2022-09-24T04:16:11;15.70;99.90
58566;DHT22;47788;46.172;-1.158;2022-09-24T04:18:37;15.70;99.90
58566;DHT22;47788;46.172;-1.158;2022-09-24T04:21:04;15.70;99.90
58566;DHT22;47788;46.172;-1.158;2022-09-24T04:23:30;15.70;99.90
58566;DHT22;47788;46.172;-1.158;2022-09-24T04:25:57;15.70;99.90
58566;DHT22;47788;46.172;-1.158;2022-09-24T04:28:25;15.70;99.90
58566;DHT22;47788;46.172;-1.158;2022-09-24T04:30:50;15.80;99.90
58566;DHT22;47788;46.172;-1.158;2022-09-24T04:33:16;15.80;99.90
58566;DHT22;47788;46.172;-1.158;2022-09-24T04:35:42;15.80;99.90
58566;DHT22;47788;46.172;-1.158;2022-09-24T04:38:07;15.80;99.90
58566;DHT22;47788;46.172;-1.158;2022-09-24T04:40:33;15.80;99.90
58566;DHT22;47788;46.172;-1.158;2022-09-24T04:42:58;15.70;99.90
58566;DHT22;47788;46.172;-1.158;2022-09-24T04:45:24;15.80;99.90
58566;DHT22;47788;46.172;-1.158;2022-09-24T04:47:51;15.70;99.90
58566;DHT22;47788;46.172;-1.158;2022-09-24T04:50:20;15.70;99.90
58566;DHT22;47788;46.172;-1.158;2022-09-24T04:52:46;15.70;99.90
58566;DHT22;47788;46.172;-1.158;2022-09-24T04:55:12;15.60;99.90
58566;DHT22;47788;46.172;-1.158;2022-09-24T04:57:38;15.60;99.90
58566;DHT22;47788;46.172;-1.158;2022-09-24T05:00:09;15.50;99.90
58566;DHT22;47788;46.172;-1.158;2022-09-24T05:02:39;15.50;99.90
58566;DHT22;47788;46.172;-1.158;2022-09-24T05:05:05;15.50;99.90
58566;DHT22;47788;46.172;-1.158;2022-09-24T05:07:31;15.40;99.90
58566;DHT22;47788;46.172;-1.158;2022-09-24T05:09:56;15.40;99.90
58566;DHT22;47788;46.172;-1.158;2022-09-24T05:12:22;15.30;99.90
58566;DHT22;47788;46.172;-1.158;2022-09-24T05:14:48;15.30;99.90
58566;DHT22;47788;46.172;-1.158;2022-09-24T05:17:13;15.30;99.90
58566;DHT22;47788;46.172;-1.158;2022-09-24T05:19:39;15.20;99.90
58566;DHT22;47788;46.172;-1.158;2022-09-24T05:22:05;15.20;99.90
58566;DHT22;47788;46.172;-1.158;2022-09-24T05:24:30;15.10;99.90
58566;DHT22;47788;46.172;-1.158;2022-09-24T05:26:56;15.10;99.90
58566;DHT22;47788;46.172;-1.158;2022-09-24T05:29:39;15.00;99.90
58566;DHT22;47788;46.172;-1.158;2022-09-24T05:32:10;14.90;99.90
58566;DHT22;47788;46.172;-1.158;2022-09-24T05:34:36;14.90;99.90
58566;DHT22;47788;46.172;-1.158;2022-09-24T05:37:02;14.90;99.90
58566;DHT22;47788;46.172;-1.158;2022-09-24T05:39:28;14.90;99.90
58566;DHT22;47788;46.172;-1.158;2022-09-24T05:41:55;14.80;99.90
58566;DHT22;47788;46.172;-1.158;2022-09-24T05:44:21;14.70;99.90
58566;DHT22;47788;46.172;-1.158;2022-09-24T05:46:47;14.70;99.90
58566;DHT22;47788;46.172;-1.158;2022-09-24T05:49:13;14.70;99.90
58566;DHT22;47788;46.172;-1.158;2022-09-24T05:51:39;14.70;99.90
58566;DHT22;47788;46.172;-1.158;2022-09-24T05:54:05;14.70;99.90
58566;DHT22;47788;46.172;-1.158;2022-09-24T05:56:30;14.70;99.90
58566;DHT22;47788;46.172;-1.158;2022-09-24T05:58:56;14.60;99.90
58566;DHT22;47788;46.172;-1.158;2022-09-24T06:01:22;14.70;99.90
58566;DHT22;47788;46.172;-1.158;2022-09-24T06:03:49;14.70;99.90
58566;DHT22;47788;46.172;-1.158;2022-09-24T06:06:15;14.70;99.90
58566;DHT22;47788;46.172;-1.158;2022-09-24T06:08:40;14.70;99.90
58566;DHT22;47788;46.172;-1.158;2022-09-24T06:11:06;14.80;99.90
58566;DHT22;47788;46.172;-1.158;2022-09-24T06:13:33;14.90;99.90
58566;DHT22;47788;46.172;-1.158;2022-09-24T06:16:03;14.90;99.90
58566;DHT22;47788;46.172;-1.158;2022-09-24T06:18:29;15.00;99.90
58566;DHT22;47788;46.172;-1.158;2022-09-24T06:21:00;15.10;99.90
58566;DHT22;47788;46.172;-1.158;2022-09-24T06:23:27;15.20;99.90
58566;DHT22;47788;46.172;-1.158;2022-09-24T06:25:53;15.20;99.90
58566;DHT22;47788;46.172;-1.158;2022-09-24T06:28:19;15.30;99.90
58566;DHT22;47788;46.172;-1.158;2022-09-24T06:30:44;15.40;99.90
58566;DHT22;47788;46.172;-1.158;2022-09-24T06:33:11;15.40;99.90
58566;DHT22;47788;46.172;-1.158;2022-09-24T06:35:39;15.50;99.90
58566;DHT22;47788;46.172;-1.158;2022-09-24T06:38:07;15.50;99.90
58566;DHT22;47788;46.172;-1.158;2022-09-24T06:40:33;15.50;99.90
58566;DHT22;47788;46.172;-1.158;2022-09-24T06:42:58;15.50;99.90
58566;DHT22;47788;46.172;-1.158;2022-09-24T06:45:24;15.50;99.90
58566;DHT22;47788;46.172;-1.158;2022-09-24T06:47:56;15.60;99.90
58566;DHT22;47788;46.172;-1.158;2022-09-24T06:50:22;15.60;99.90
58566;DHT22;47788;46.172;-1.158;2022-09-24T06:52:48;15.70;99.90
58566;DHT22;47788;46.172;-1.158;2022-09-24T06:55:15;15.80;99.90
58566;DHT22;47788;46.172;-1.158;2022-09-24T06:57:41;15.80;99.90
58566;DHT22;47788;46.172;-1.158;2022-09-24T07:00:07;15.90;99.90
58566;DHT22;47788;46.172;-1.158;2022-09-24T07:02:33;16.00;99.90
58566;DHT22;47788;46.172;-1.158;2022-09-24T07:04:58;16.10;99.90
58566;DHT22;47788;46.172;-1.158;2022-09-24T07:07:24;16.10;99.90
58566;DHT22;47788;46.172;-1.158;2022-09-24T07:09:59;16.10;99.90
58566;DHT22;47788;46.172;-1.158;2022-09-24T07:12:28;16.30;99.90
58566;DHT22;47788;46.172;-1.158;2022-09-24T07:14:54;16.30;99.90
58566;DHT22;47788;46.172;-1.158;2022-09-24T07:17:20;16.30;99.90
58566;DHT22;47788;46.172;-1.158;2022-09-24T07:19:46;16.30;99.90
58566;DHT22;47788;46.172;-1.158;2022-09-24T07:22:12;16.40;99.90
58566;DHT22;47788;46.172;-1.158;2022-09-24T07:24:38;16.40;99.90
58566;DHT22;47788;46.172;-1.158;2022-09-24T07:27:04;16.40;99.90
58566;DHT22;47788;46.172;-1.158;2022-09-24T07:29:30;16.40;99.90
58566;DHT22;47788;46.172;-1.158;2022-09-24T07:31:56;16.40;99.90
58566;DHT22;47788;46.172;-1.158;2022-09-24T07:34:22;16.50;99.90
58566;DHT22;47788;46.172;-1.158;2022-09-24T07:36:47;16.50;99.90
58566;DHT22;47788;46.172;-1.158;2022-09-24T07:39:13;16.60;99.90
58566;DHT22;47788;46.172;-1.158;2022-09-24T07:41:39;16.70;99.90
58566;DHT22;47788;46.172;-1.158;2022-09-24T07:44:09;16.60;99.90
58566;DHT22;47788;46.172;-1.158;2022-09-24T07:46:35;16.70;99.90
58566;DHT22;47788;46.172;-1.158;2022-09-24T07:49:01;16.70;99.90
58566;DHT22;47788;46.172;-1.158;2022-09-24T07:51:27;16.70;99.90
58566;DHT22;47788;46.172;-1.158;2022-09-24T07:53:56;16.70;99.90
58566;DHT22;47788;46.172;-1.158;2022-09-24T07:56:23;16.70;99.90
58566;DHT22;47788;46.172;-1.158;2022-09-24T07:58:49;16.70;99.90
58566;DHT22;47788;46.172;-1.158;2022-09-24T08:01:15;16.80;99.90
58566;DHT22;47788;46.172;-1.158;2022-09-24T08:03:42;16.80;99.90
58566;DHT22;47788;46.172;-1.158;2022-09-24T08:06:08;16.70;99.90
58566;DHT22;47788;46.172;-1.158;2022-09-24T08:08:34;16.60;99.90
58566;DHT22;47788;46.172;-1.158;2022-09-24T08:11:07;16.60;99.90
58566;DHT22;47788;46.172;-1.158;2022-09-24T08:13:34;16.60;99.90
58566;DHT22;47788;46.172;-1.158;2022-09-24T08:16:00;16.70;99.90
58566;DHT22;47788;46.172;-1.158;2022-09-24T08:18:28;16.60;99.90
58566;DHT22;47788;46.172;-1.158;2022-09-24T08:21:05;16.50;99.90
58566;DHT22;47788;46.172;-1.158;2022-09-24T08:23:32;16.70;99.90
58566;DHT22;47788;46.172;-1.158;2022-09-24T08:25:58;16.60;99.90
58566;DHT22;47788;46.172;-1.158;2022-09-24T08:28:24;16.50;99.90
58566;DHT22;47788;46.172;-1.158;2022-09-24T08:30:50;16.50;99.90
58566;DHT22;47788;46.172;-1.158;2022-09-24T08:33:16;16.60;99.90
58566;DHT22;47788;46.172;-1.158;2022-09-24T08:35:41;16.50;99.90
58566;DHT22;47788;46.172;-1.158;2022-09-24T08:38:07;16.60;99.90
58566;DHT22;47788;46.172;-1.158;2022-09-24T08:40:47;16.80;99.90
58566;DHT22;47788;46.172;-1.158;2022-09-24T08:43:29;16.80;99.90
58566;DHT22;47788;46.172;-1.158;2022-09-24T08:46:01;16.90;99.90
58566;DHT22;47788;46.172;-1.158;2022-09-24T08:48:50;17.00;99.90
58566;DHT22;47788;46.172;-1.158;2022-09-24T08:51:19;17.00;99.90
58566;DHT22;47788;46.172;-1.158;2022-09-24T08:56:25;17.30;99.90
58566;DHT22;47788;46.172;-1.158;2022-09-24T08:58:58;17.40;99.90
58566;DHT22;47788;46.172;-1.158;2022-09-24T09:05:01;17.40;99.90
58566;DHT22;47788;46.172;-1.158;2022-09-24T09:07:20;17.40;99.90
58566;DHT22;47788;46.172;-1.158;2022-09-24T09:12:24;17.40;99.90
58566;DHT22;47788;46.172;-1.158;2022-09-24T09:22:52;17.40;99.90
58566;DHT22;47788;46.172;-1.158;2022-09-24T09:25:24;17.40;99.90
58566;DHT22;47788;46.172;-1.158;2022-09-24T09:28:12;17.50;99.90
58566;DHT22;47788;46.172;-1.158;2022-09-24T09:30:52;17.60;99.90
58566;DHT22;47788;46.172;-1.158;2022-09-24T09:44:27;18.40;99.90
58566;DHT22;47788;46.172;-1.158;2022-09-24T09:46:59;18.50;99.90
58566;DHT22;47788;46.172;-1.158;2022-09-24T09:49:32;18.80;99.90
58566;DHT22;47788;46.172;-1.158;2022-09-24T09:52:02;18.90;99.90
58566;DHT22;47788;46.172;-1.158;2022-09-24T09:54:38;19.10;99.90
58566;DHT22;47788;46.172;-1.158;2022-09-24T09:57:07;19.20;99.90
58566;DHT22;47788;46.172;-1.158;2022-09-24T09:59:37;19.30;99.90
58566;DHT22;47788;46.172;-1.158;2022-09-24T10:02:09;19.00;99.90
58566;DHT22;47788;46.172;-1.158;2022-09-24T10:04:38;19.10;99.90
58566;DHT22;47788;46.172;-1.158;2022-09-24T10:07:14;19.00;99.90
58566;DHT22;47788;46.172;-1.158;2022-09-24T10:09:41;19.10;99.90
58566;DHT22;47788;46.172;-1.158;2022-09-24T10:12:20;19.10;99.90
58566;DHT22;47788;46.172;-1.158;2022-09-24T10:15:19;19.20;99.90
58566;DHT22;47788;46.172;-1.158;2022-09-24T10:17:48;19.40;99.90
58566;DHT22;47788;46.172;-1.158;2022-09-24T10:20:23;19.60;99.90
58566;DHT22;47788;46.172;-1.158;2022-09-24T10:25:23;19.30;99.90
58566;DHT22;47788;46.172;-1.158;2022-09-24T10:27:52;19.50;99.90
58566;DHT22;47788;46.172;-1.158;2022-09-24T10:30:18;19.60;99.90
58566;DHT22;47788;46.172;-1.158;2022-09-24T10:33:01;19.50;99.90
58566;DHT22;47788;46.172;-1.158;2022-09-24T10:35:30;19.50;99.90
58566;DHT22;47788;46.172;-1.158;2022-09-24T10:37:58;19.20;99.90
58566;DHT22;47788;46.172;-1.158;2022-09-24T10:40:30;19.00;99.90
58566;DHT22;47788;46.172;-1.158;2022-09-24T10:43:03;19.20;99.90
58566;DHT22;47788;46.172;-1.158;2022-09-24T10:46:02;19.60;99.90
58566;DHT22;47788;46.172;-1.158;2022-09-24T11:05:28;20.50;99.90
58566;DHT22;47788;46.172;-1.158;2022-09-24T11:14:00;20.20;99.90
58566;DHT22;47788;46.172;-1.158;2022-09-24T11:30:49;21.20;99.90
58566;DHT22;47788;46.172;-1.158;2022-09-24T11:41:46;21.70;99.90
58566;DHT22;47788;46.172;-1.158;2022-09-24T11:52:34;21.60;99.90
58566;DHT22;47788;46.172;-1.158;2022-09-24T11:57:52;21.80;99.90
58566;DHT22;47788;46.172;-1.158;2022-09-24T12:00:31;21.60;99.90
58566;DHT22;47788;46.172;-1.158;2022-09-24T12:03:04;21.50;99.90
58566;DHT22;47788;46.172;-1.158;2022-09-24T12:05:41;21.50;99.90
58566;DHT22;47788;46.172;-1.158;2022-09-24T12:08:17;21.50;99.90
58566;DHT22;47788;46.172;-1.158;2022-09-24T12:10:50;21.40;99.90
58566;DHT22;47788;46.172;-1.158;2022-09-24T12:15:57;21.60;99.90
58566;DHT22;47788;46.172;-1.158;2022-09-24T12:18:44;21.60;99.90
58566;DHT22;47788;46.172;-1.158;2022-09-24T12:21:19;21.80;99.90
58566;DHT22;47788;46.172;-1.158;2022-09-24T12:23:46;21.80;99.90
58566;DHT22;47788;46.172;-1.158;2022-09-24T12:26:14;21.80;99.90
58566;DHT22;47788;46.172;-1.158;2022-09-24T12:32:18;21.50;99.90
58566;DHT22;47788;46.172;-1.158;2022-09-24T12:37:41;21.40;99.90
58566;DHT22;47788;46.172;-1.158;2022-09-24T12:42:42;21.50;99.90
58566;DHT22;47788;46.172;-1.158;2022-09-24T12:45:14;21.60;99.90
58566;DHT22;47788;46.172;-1.158;2022-09-24T12:47:54;21.70;99.90
58566;DHT22;47788;46.172;-1.158;2022-09-24T12:50:22;21.60;99.90
58566;DHT22;47788;46.172;-1.158;2022-09-24T12:52:49;21.60;99.90
58566;DHT22;47788;46.172;-1.158;2022-09-24T12:55:22;21.50;99.90
58566;DHT22;47788;46.172;-1.158;2022-09-24T12:58:06;21.70;99.90
58566;DHT22;47788;46.172;-1.158;2022-09-24T13:00:44;21.60;99.90
58566;DHT22;47788;46.172;-1.158;2022-09-24T13:05:57;21.10;99.90
58566;DHT22;47788;46.172;-1.158;2022-09-24T13:08:26;21.20;99.90
58566;DHT22;47788;46.172;-1.158;2022-09-24T13:11:00;21.20;99.90
58566;DHT22;47788;46.172;-1.158;2022-09-24T13:13:34;21.30;99.90
58566;DHT22;47788;46.172;-1.158;2022-09-24T13:16:05;21.60;99.90
58566;DHT22;47788;46.172;-1.158;2022-09-24T13:18:33;21.80;99.90
58566;DHT22;47788;46.172;-1.158;2022-09-24T13:21:20;21.80;99.90
58566;DHT22;47788;46.172;-1.158;2022-09-24T13:23:48;21.80;99.90
58566;DHT22;47788;46.172;-1.158;2022-09-24T13:29:04;22.00;99.90
58566;DHT22;47788;46.172;-1.158;2022-09-24T13:31:32;22.20;99.90
58566;DHT22;47788;46.172;-1.158;2022-09-24T13:34:26;22.50;99.90
58566;DHT22;47788;46.172;-1.158;2022-09-24T13:37:03;22.30;99.90
58566;DHT22;47788;46.172;-1.158;2022-09-24T13:39:54;22.00;99.90
58566;DHT22;47788;46.172;-1.158;2022-09-24T13:42:37;21.80;99.90
58566;DHT22;47788;46.172;-1.158;2022-09-24T13:45:14;21.90;99.90
58566;DHT22;47788;46.172;-1.158;2022-09-24T13:47:46;22.10;99.90
58566;DHT22;47788;46.172;-1.158;2022-09-24T13:55:32;21.70;99.90
58566;DHT22;47788;46.172;-1.158;2022-09-24T13:57:59;21.70;99.90
58566;DHT22;47788;46.172;-1.158;2022-09-24T14:00:27;21.70;99.90
58566;DHT22;47788;46.172;-1.158;2022-09-24T14:02:54;21.90;99.90
58566;DHT22;47788;46.172;-1.158;2022-09-24T14:05:20;22.10;99.90
58566;DHT22;47788;46.172;-1.158;2022-09-24T14:08:07;22.00;99.90
58566;DHT22;47788;46.172;-1.158;2022-09-24T14:10:35;21.70;99.90
58566;DHT22;47788;46.172;-1.158;2022-09-24T14:15:33;22.10;98.70
58566;DHT22;47788;46.172;-1.158;2022-09-24T14:18:00;22.20;99.80
58566;DHT22;47788;46.172;-1.158;2022-09-24T14:20:31;22.30;99.10
58566;DHT22;47788;46.172;-1.158;2022-09-24T14:22:58;22.80;98.50
58566;DHT22;47788;46.172;-1.158;2022-09-24T14:25:29;23.10;97.50
58566;DHT22;47788;46.172;-1.158;2022-09-24T14:27:57;23.20;97.20
58566;DHT22;47788;46.172;-1.158;2022-09-24T14:30:26;23.40;97.40
58566;DHT22;47788;46.172;-1.158;2022-09-24T14:33:05;24.40;95.60
58566;DHT22;47788;46.172;-1.158;2022-09-24T14:35:33;25.10;94.30
58566;DHT22;47788;46.172;-1.158;2022-09-24T14:38:04;24.80;94.10
58566;DHT22;47788;46.172;-1.158;2022-09-24T14:41:03;23.60;95.10
58566;DHT22;47788;46.172;-1.158;2022-09-24T14:48:39;20.60;99.90
58566;DHT22;47788;46.172;-1.158;2022-09-24T14:51:24;20.10;99.90
58566;DHT22;47788;46.172;-1.158;2022-09-24T14:56:45;19.90;99.90
58566;DHT22;47788;46.172;-1.158;2022-09-24T14:59:15;20.10;99.90
58566;DHT22;47788;46.172;-1.158;2022-09-24T15:02:02;20.10;99.90
58566;DHT22;47788;46.172;-1.158;2022-09-24T15:04:28;20.10;99.90
58566;DHT22;47788;46.172;-1.158;2022-09-24T15:06:54;20.00;99.90
58566;DHT22;47788;46.172;-1.158;2022-09-24T15:09:30;19.90;99.90
58566;DHT22;47788;46.172;-1.158;2022-09-24T15:12:07;19.90;99.90
58566;DHT22;47788;46.172;-1.158;2022-09-24T15:14:33;19.80;99.90
58566;DHT22;47788;46.172;-1.158;2022-09-24T15:17:20;19.80;99.90
58566;DHT22;47788;46.172;-1.158;2022-09-24T15:19:46;19.70;99.90
58566;DHT22;47788;46.172;-1.158;2022-09-24T15:22:12;19.60;99.90
58566;DHT22;47788;46.172;-1.158;2022-09-24T15:24:38;19.50;99.90
58566;DHT22;47788;46.172;-1.158;2022-09-24T15:27:14;19.60;99.90
58566;DHT22;47788;46.172;-1.158;2022-09-24T15:29:39;19.50;99.90
58566;DHT22;47788;46.172;-1.158;2022-09-24T15:32:17;19.50;99.90
58566;DHT22;47788;46.172;-1.158;2022-09-24T15:34:43;19.50;99.90
58566;DHT22;47788;46.172;-1.158;2022-09-24T15:37:15;19.60;99.90
58566;DHT22;47788;46.172;-1.158;2022-09-24T15:39:42;19.70;99.90
58566;DHT22;47788;46.172;-1.158;2022-09-24T15:42:15;19.80;99.90
58566;DHT22;47788;46.172;-1.158;2022-09-24T15:44:42;19.90;99.90
58566;DHT22;47788;46.172;-1.158;2022-09-24T15:47:07;20.00;99.90
58566;DHT22;47788;46.172;-1.158;2022-09-24T15:49:33;19.90;99.90
58566;DHT22;47788;46.172;-1.158;2022-09-24T15:52:01;19.90;99.90
58566;DHT22;47788;46.172;-1.158;2022-09-24T15:54:30;19.90;99.90
58566;DHT22;47788;46.172;-1.158;2022-09-24T15:56:55;19.90;99.90
58566;DHT22;47788;46.172;-1.158;2022-09-24T15:59:21;19.80;99.90
58566;DHT22;47788;46.172;-1.158;2022-09-24T16:01:53;19.80;99.90
58566;DHT22;47788;46.172;-1.158;2022-09-24T16:04:19;20.10;99.90
58566;DHT22;47788;46.172;-1.158;2022-09-24T16:06:45;22.20;99.90
58566;DHT22;47788;46.172;-1.158;2022-09-24T16:09:10;24.10;99.90
58566;DHT22;47788;46.172;-1.158;2022-09-24T16:11:36;24.80;99.90
58566;DHT22;47788;46.172;-1.158;2022-09-24T16:14:02;26.50;99.90
58566;DHT22;47788;46.172;-1.158;2022-09-24T16:16:27;28.80;97.40
58566;DHT22;47788;46.172;-1.158;2022-09-24T16:18:53;30.50;93.50
58566;DHT22;47788;46.172;-1.158;2022-09-24T16:21:19;31.30;91.30
58566;DHT22;47788;46.172;-1.158;2022-09-24T16:23:44;30.60;91.00
58566;DHT22;47788;46.172;-1.158;2022-09-24T16:26:10;30.30;90.90
58566;DHT22;47788;46.172;-1.158;2022-09-24T16:28:35;30.60;90.00
58566;DHT22;47788;46.172;-1.158;2022-09-24T16:31:05;30.50;90.00
58566;DHT22;47788;46.172;-1.158;2022-09-24T16:33:35;30.30;89.10
58566;DHT22;47788;46.172;-1.158;2022-09-24T16:36:08;30.10;86.60
58566;DHT22;47788;46.172;-1.158;2022-09-24T16:38:37;29.90;88.80
58566;DHT22;47788;46.172;-1.158;2022-09-24T16:41:04;29.40;88.70
58566;DHT22;47788;46.172;-1.158;2022-09-24T16:43:31;28.50;90.50
58566;DHT22;47788;46.172;-1.158;2022-09-24T16:46:05;28.30;90.70
58566;DHT22;47788;46.172;-1.158;2022-09-24T16:48:31;28.70;90.40
58566;DHT22;47788;46.172;-1.158;2022-09-24T16:51:07;28.80;90.20
58566;DHT22;47788;46.172;-1.158;2022-09-24T16:53:34;28.60;90.60
58566;DHT22;47788;46.172;-1.158;2022-09-24T16:58:30;26.70;92.40
58566;DHT22;47788;46.172;-1.158;2022-09-24T17:00:57;25.40;92.10
58566;DHT22;47788;46.172;-1.158;2022-09-24T17:03:22;24.00;93.90
58566;DHT22;47788;46.172;-1.158;2022-09-24T17:05:48;22.60;96.00
58566;DHT22;47788;46.172;-1.158;2022-09-24T17:08:13;21.60;97.40
58566;DHT22;47788;46.172;-1.158;2022-09-24T17:10:50;20.70;99.00
58566;DHT22;47788;46.172;-1.158;2022-09-24T17:13:16;20.20;99.90
58566;DHT22;47788;46.172;-1.158;2022-09-24T17:15:42;19.70;99.90
58566;DHT22;47788;46.172;-1.158;2022-09-24T17:18:08;19.30;99.90
58566;DHT22;47788;46.172;-1.158;2022-09-24T17:20:34;19.00;99.90
58566;DHT22;47788;46.172;-1.158;2022-09-24T17:23:00;18.50;99.90
58566;DHT22;47788;46.172;-1.158;2022-09-24T17:25:25;18.20;99.90
58566;DHT22;47788;46.172;-1.158;2022-09-24T17:27:52;17.90;99.90
58566;DHT22;47788;46.172;-1.158;2022-09-24T17:30:18;17.90;99.90
58566;DHT22;47788;46.172;-1.158;2022-09-24T17:32:43;17.80;99.90
58566;DHT22;47788;46.172;-1.158;2022-09-24T17:35:09;17.70;99.90
58566;DHT22;47788;46.172;-1.158;2022-09-24T17:37:35;17.70;99.90
58566;DHT22;47788;46.172;-1.158;2022-09-24T17:40:01;17.50;99.90
58566;DHT22;47788;46.172;-1.158;2022-09-24T17:42:27;17.30;99.90
58566;DHT22;47788;46.172;-1.158;2022-09-24T17:44:53;17.10;99.90